createdAt,value
2022-11-05T00:00:37.683Z,97867.72
2022-11-05T00:03:33.775Z,97865.03
2022-11-05T00:06:19.139Z,97874.00
2022-11-05T00:09:04.383Z,97883.06
2022-11-05T00:11:50.204Z,97883.16
2022-11-05T00:14:35.579Z,97886.31
2022-11-05T00:17:02.548Z,97885.34
2022-11-05T00:19:29.561Z,97886.88
2022-11-05T00:22:15.339Z,97889.69
2022-11-05T00:25:00.780Z,97891.50
2022-11-05T00:27:27.755Z,97897.34
2022-11-05T00:29:54.859Z,97894.44
2022-11-05T00:32:23.203Z,97899.09
2022-11-05T00:34:50.214Z,97900.13
2022-11-05T00:37:17.206Z,97898.13
2022-11-05T00:39:44.274Z,97893.59
2022-11-05T00:42:29.718Z,97902.09
2022-11-05T00:45:02.858Z,97906.25
2022-11-05T00:47:50.674Z,97901.41
2022-11-05T00:50:19.321Z,97909.06
2022-11-05T00:52:59.720Z,97914.91
2022-11-05T00:55:28.686Z,97910.69
2022-11-05T00:57:57.186Z,97926.13
2022-11-05T01:00:27.594Z,97925.81
2022-11-05T01:02:58.657Z,97925.44
2022-11-05T01:05:26.128Z,97936.59
2022-11-05T01:07:53.924Z,97935.22
2022-11-05T01:10:21.741Z,97942.81
2022-11-05T01:12:49.161Z,97944.88
2022-11-05T01:15:17.792Z,97939.06
2022-11-05T01:17:44.772Z,97943.41
2022-11-05T01:20:12.729Z,97950.84
2022-11-05T01:22:39.760Z,97943.13
2022-11-05T01:25:08.326Z,97946.34
2022-11-05T01:27:37.497Z,97947.06
2022-11-05T01:30:07.750Z,97950.19
2022-11-05T01:32:36.491Z,97953.59
2022-11-05T01:35:06.029Z,97958.41
2022-11-05T01:37:35.006Z,97955.50
2022-11-05T01:40:02.377Z,97955.00
2022-11-05T01:42:33.048Z,97961.47
2022-11-05T01:45:03.336Z,97964.66
2022-11-05T01:47:52.559Z,97967.66
2022-11-05T01:50:37.512Z,97964.78
2022-11-05T01:53:27.567Z,97971.53
2022-11-05T01:56:05.361Z,97965.47
2022-11-05T01:58:42.766Z,97966.31
2022-11-05T02:01:09.991Z,97964.91
2022-11-05T02:03:37.263Z,97970.84
2022-11-05T02:06:09.301Z,97967.31
2022-11-05T02:09:02.186Z,97973.31
2022-11-05T02:11:29.709Z,97981.78
2022-11-05T02:13:56.698Z,97979.13
2022-11-05T02:16:47.221Z,97978.38
2022-11-05T02:19:55.028Z,97980.28
2022-11-05T02:22:48.904Z,97971.19
2022-11-05T02:25:39.751Z,97976.03
2022-11-05T02:28:18.521Z,97982.16
2022-11-05T02:31:24.867Z,97978.53
2022-11-05T02:34:28.634Z,97983.38
2022-11-05T02:37:23.114Z,97982.44
2022-11-05T02:40:16.863Z,97988.78
2022-11-05T02:43:28.616Z,97990.53
2022-11-05T02:46:20.961Z,97990.41
2022-11-05T02:49:13.841Z,97994.09
2022-11-05T02:51:58.400Z,97996.25
2022-11-05T02:54:31.905Z,97996.44
2022-11-05T02:57:00.886Z,97996.19
2022-11-05T02:59:27.965Z,97993.66
2022-11-05T03:01:55.754Z,97993.63
2022-11-05T03:04:24.869Z,97998.47
2022-11-05T03:07:24.007Z,97991.63
2022-11-05T03:10:18.243Z,98005.94
2022-11-05T03:13:16.625Z,98000.13
2022-11-05T03:15:57.472Z,97996.38
2022-11-05T03:18:51.362Z,97994.22
2022-11-05T03:21:45.794Z,98004.25
2022-11-05T03:24:31.595Z,98008.16
2022-11-05T03:27:19.674Z,98006.97
2022-11-05T03:29:54.154Z,97993.63
2022-11-05T03:32:22.535Z,98005.09
2022-11-05T03:35:08.326Z,98009.16
2022-11-05T03:37:37.746Z,98008.38
2022-11-05T03:40:08.488Z,98019.03
2022-11-05T03:42:41.215Z,98020.47
2022-11-05T03:45:16.014Z,98025.47
2022-11-05T03:47:46.249Z,98026.56
2022-11-05T03:50:35.860Z,98031.22
2022-11-05T03:53:20.945Z,98031.47
2022-11-05T03:56:35.849Z,98036.69
2022-11-05T03:59:03.967Z,98042.28
2022-11-05T04:01:31.769Z,98034.81
2022-11-05T04:03:58.864Z,98043.03
2022-11-05T04:06:44.828Z,98041.47
2022-11-05T04:09:30.313Z,98040.56
2022-11-05T04:12:16.192Z,98047.63
2022-11-05T04:14:43.164Z,98054.09
2022-11-05T04:17:10.272Z,98050.84
2022-11-05T04:20:01.633Z,98046.00
2022-11-05T04:22:50.603Z,98053.69
2022-11-05T04:25:18.708Z,98047.00
2022-11-05T04:27:46.504Z,98053.41
2022-11-05T04:30:18.584Z,98061.69
2022-11-05T04:33:18.226Z,98063.56
2022-11-05T04:35:48.274Z,98068.88
2022-11-05T04:38:18.391Z,98077.19
2022-11-05T04:40:47.035Z,98072.59
2022-11-05T04:43:19.363Z,98071.72
2022-11-05T04:45:47.534Z,98069.53
2022-11-05T04:48:14.508Z,98071.28
2022-11-05T04:50:41.523Z,98087.56
2022-11-05T04:53:08.790Z,98083.47
2022-11-05T04:55:35.903Z,98088.41
2022-11-05T04:58:09.302Z,98086.44
2022-11-05T05:00:36.821Z,98098.69
2022-11-05T05:03:03.829Z,98099.19
2022-11-05T05:05:35.750Z,98094.03
2022-11-05T05:08:06.000Z,98095.25
2022-11-05T05:10:33.109Z,98095.25
2022-11-05T05:13:00.122Z,98106.31
2022-11-05T05:15:27.193Z,98103.53
2022-11-05T05:17:54.259Z,98101.13
2022-11-05T05:20:39.538Z,98112.19
2022-11-05T05:23:06.592Z,98109.41
2022-11-05T05:25:33.547Z,98112.78
2022-11-05T05:28:00.631Z,98123.91
2022-11-05T05:30:27.670Z,98117.41
2022-11-05T05:32:54.710Z,98117.75
2022-11-05T05:35:21.857Z,98119.38
2022-11-05T05:37:48.799Z,98121.59
2022-11-05T05:40:15.773Z,98121.28
2022-11-05T05:42:43.551Z,98127.06
2022-11-05T05:45:12.366Z,98125.22
2022-11-05T05:47:39.343Z,98129.19
2022-11-05T05:50:06.633Z,98139.25
2022-11-05T05:52:33.574Z,98135.50
2022-11-05T05:55:00.730Z,98144.72
2022-11-05T05:57:27.733Z,98142.34
2022-11-05T05:59:54.695Z,98148.34
2022-11-05T06:02:22.955Z,98144.41
2022-11-05T06:04:50.164Z,98143.38
2022-11-05T06:07:17.173Z,98149.53
2022-11-05T06:09:44.141Z,98151.53
2022-11-05T06:12:11.114Z,98156.06
2022-11-05T06:14:38.086Z,98165.03
2022-11-05T06:17:07.463Z,98160.16
2022-11-05T06:19:34.416Z,98166.28
2022-11-05T06:22:01.391Z,98166.28
2022-11-05T06:24:28.366Z,98171.94
2022-11-05T06:26:55.366Z,98173.03
2022-11-05T06:29:22.466Z,98186.84
2022-11-05T06:31:49.454Z,98195.00
2022-11-05T06:34:16.408Z,98191.47
2022-11-05T06:36:43.360Z,98197.41
2022-11-05T06:39:11.853Z,98191.75
2022-11-05T06:42:04.027Z,98194.50
2022-11-05T06:44:26.160Z,98212.59
2022-11-05T06:46:53.134Z,98212.56
2022-11-05T06:49:22.408Z,98211.38
2022-11-05T06:51:49.375Z,98207.06
2022-11-05T06:54:16.349Z,98213.97
2022-11-05T06:56:43.341Z,98214.09
2022-11-05T06:59:10.346Z,98221.50
2022-11-05T07:01:38.155Z,98229.84
2022-11-05T07:04:05.236Z,98227.63
2022-11-05T07:06:36.832Z,98243.72
2022-11-05T07:09:04.513Z,98239.63
2022-11-05T07:11:31.626Z,98245.53
2022-11-05T07:13:58.637Z,98252.41
2022-11-05T07:16:25.613Z,98262.19
2022-11-05T07:18:53.088Z,98256.78
2022-11-05T07:21:20.514Z,98264.28
2022-11-05T07:23:48.518Z,98266.47
2022-11-05T07:26:15.803Z,98276.56
2022-11-05T07:28:42.747Z,98274.78
2022-11-05T07:31:09.696Z,98286.88
2022-11-05T07:33:36.972Z,98285.91
2022-11-05T07:36:04.555Z,98291.88
2022-11-05T07:38:31.606Z,98295.91
2022-11-05T07:41:02.198Z,98300.34
2022-11-05T07:43:29.221Z,98305.44
2022-11-05T07:45:56.257Z,98309.63
2022-11-05T07:48:23.812Z,98309.44
2022-11-05T07:50:53.053Z,98311.63
2022-11-05T07:53:23.136Z,98303.94
2022-11-05T07:55:52.467Z,98304.50
2022-11-05T07:58:19.411Z,98315.59
2022-11-05T08:00:46.633Z,98301.31
2022-11-05T08:03:17.487Z,98314.06
2022-11-05T08:05:48.105Z,98308.19
2022-11-05T08:08:18.386Z,98313.41
2022-11-05T08:10:45.815Z,98324.06
2022-11-05T08:13:13.760Z,98322.53
2022-11-05T08:15:42.682Z,98331.75
2022-11-05T08:18:16.393Z,98328.31
2022-11-05T08:20:45.237Z,98337.53
2022-11-05T08:23:13.071Z,98338.38
2022-11-05T08:25:41.167Z,98346.16
2022-11-05T08:28:13.997Z,98338.28
2022-11-05T08:30:41.109Z,98343.25
2022-11-05T08:33:12.289Z,98345.25
2022-11-05T08:35:40.181Z,98350.22
2022-11-05T08:38:09.894Z,98355.66
2022-11-05T08:40:38.008Z,98349.66
2022-11-05T08:43:07.204Z,98350.47
2022-11-05T08:45:38.182Z,98354.16
2022-11-05T08:48:12.589Z,98346.78
2022-11-05T08:50:43.900Z,98358.31
2022-11-05T08:53:12.020Z,98357.06
2022-11-05T08:55:39.876Z,98368.41
2022-11-05T08:58:12.519Z,98357.28
2022-11-05T09:00:40.197Z,98365.59
2022-11-05T09:03:09.878Z,98367.69
2022-11-05T09:05:39.518Z,98371.97
2022-11-05T09:08:18.332Z,98370.19
2022-11-05T09:10:47.149Z,98381.41
2022-11-05T09:13:18.696Z,98379.72
2022-11-05T09:15:48.945Z,98378.41
2022-11-05T09:18:18.074Z,98381.38
2022-11-05T09:20:45.271Z,98383.81
2022-11-05T09:23:14.875Z,98385.69
2022-11-05T09:25:42.306Z,98397.41
2022-11-05T09:28:20.281Z,98393.78
2022-11-05T09:30:50.522Z,98393.28
2022-11-05T09:33:21.649Z,98396.09
2022-11-05T09:35:48.955Z,98402.88
2022-11-05T09:38:16.564Z,98404.16
2022-11-05T09:41:08.777Z,98413.44
2022-11-05T09:43:48.435Z,98409.88
2022-11-05T09:46:28.398Z,98415.38
2022-11-05T09:49:05.094Z,98417.84
2022-11-05T09:51:32.917Z,98408.16
2022-11-05T09:54:03.821Z,98406.72
2022-11-05T09:56:34.921Z,98407.41
2022-11-05T09:59:23.163Z,98412.44
2022-11-05T10:01:52.363Z,98421.31
2022-11-05T10:04:24.563Z,98423.25
2022-11-05T10:07:00.833Z,98421.06
2022-11-05T10:10:02.375Z,98418.34
2022-11-05T10:12:40.485Z,98425.88
2022-11-05T10:15:28.365Z,98428.84
2022-11-05T10:18:10.510Z,98432.00
2022-11-05T10:20:39.254Z,98440.91
2022-11-05T10:23:14.950Z,98444.06
2022-11-05T10:25:47.373Z,98444.41
2022-11-05T10:28:24.413Z,98449.22
2022-11-05T10:30:58.155Z,98450.91
2022-11-05T10:33:39.360Z,98445.31
2022-11-05T10:36:11.652Z,98457.03
2022-11-05T10:38:38.933Z,98452.38
2022-11-05T10:41:28.912Z,98467.75
2022-11-05T10:44:24.205Z,98473.28
2022-11-05T10:47:10.761Z,98470.63
2022-11-05T10:49:46.396Z,98472.03
2022-11-05T10:52:24.031Z,98477.88
2022-11-05T10:54:53.973Z,98468.41
2022-11-05T10:57:41.593Z,98479.50
2022-11-05T11:00:23.472Z,98473.31
2022-11-05T11:03:02.772Z,98469.53
2022-11-05T11:05:39.735Z,98470.97
2022-11-05T11:08:12.371Z,98476.97
2022-11-05T11:10:55.934Z,98473.84
2022-11-05T11:13:30.050Z,98478.03
2022-11-05T11:16:20.375Z,98479.59
2022-11-05T11:18:56.416Z,98478.97
2022-11-05T11:21:24.166Z,98479.91
2022-11-05T11:24:02.908Z,98474.28
2022-11-05T11:26:37.839Z,98475.19
2022-11-05T11:29:26.039Z,98476.63
2022-11-05T11:32:00.106Z,98479.91
2022-11-05T11:34:33.759Z,98472.63
2022-11-05T11:37:28.981Z,98480.44
2022-11-05T11:40:12.006Z,98487.19
2022-11-05T11:42:45.412Z,98488.22
2022-11-05T11:45:37.545Z,98488.59
2022-11-05T11:48:19.100Z,98493.13
2022-11-05T11:50:48.543Z,98491.94
2022-11-05T11:53:29.170Z,98493.47
2022-11-05T11:56:04.945Z,98498.13
2022-11-05T11:58:50.621Z,98502.50
2022-11-05T12:02:02.208Z,98504.09
2022-11-05T12:05:07.068Z,98508.75
2022-11-05T12:07:55.343Z,98497.81
2022-11-05T12:10:48.871Z,98507.69
2022-11-05T12:13:22.116Z,98496.09
2022-11-05T12:16:01.907Z,98485.16
2022-11-05T12:19:17.224Z,98485.34
2022-11-05T12:22:10.117Z,98485.59
2022-11-05T12:24:51.538Z,98489.72
2022-11-05T12:27:52.187Z,98485.06
2022-11-05T12:30:21.758Z,98482.69
2022-11-05T12:33:25.257Z,98478.19
2022-11-05T12:36:05.027Z,98481.81
2022-11-05T12:38:40.805Z,98480.13
2022-11-05T12:41:47.197Z,98473.47
2022-11-05T12:44:50.450Z,98479.47
2022-11-05T12:47:53.454Z,98487.53
2022-11-05T12:51:10.637Z,98486.69
2022-11-05T12:54:11.365Z,98479.47
2022-11-05T12:56:56.749Z,98480.53
2022-11-05T12:59:37.576Z,98481.38
2022-11-05T13:02:26.174Z,98483.41
2022-11-05T13:05:07.157Z,98483.28
2022-11-05T13:07:39.309Z,98487.59
2022-11-05T13:10:17.424Z,98486.69
2022-11-05T13:12:46.650Z,98487.38
2022-11-05T13:15:41.459Z,98493.84
2022-11-05T13:18:18.321Z,98495.75
2022-11-05T13:20:50.398Z,98492.53
2022-11-05T13:23:19.367Z,98493.22
2022-11-05T13:25:58.860Z,98497.31
2022-11-05T13:28:56.727Z,98495.09
2022-11-05T13:31:43.885Z,98496.81
2022-11-05T13:34:20.181Z,98499.41
2022-11-05T13:37:20.585Z,98488.03
2022-11-05T13:39:59.364Z,98502.81
2022-11-05T13:42:41.790Z,98502.31
2022-11-05T13:45:35.057Z,98502.09
2022-11-05T13:48:49.043Z,98504.97
2022-11-05T13:51:52.824Z,98503.00
2022-11-05T13:54:49.741Z,98498.31
2022-11-05T13:57:49.868Z,98498.75
2022-11-05T14:00:21.191Z,98509.63
2022-11-05T14:03:03.085Z,98509.13
2022-11-05T14:05:38.288Z,98510.16
2022-11-05T14:08:11.865Z,98508.78
2022-11-05T14:10:45.904Z,98512.25
2022-11-05T14:13:42.311Z,98506.84
2022-11-05T14:16:47.898Z,98503.47
2022-11-05T14:19:27.485Z,98507.16
2022-11-05T14:21:56.803Z,98514.00
2022-11-05T14:24:23.980Z,98517.31
2022-11-05T14:27:03.370Z,98506.22
2022-11-05T14:29:47.832Z,98509.94
2022-11-05T14:32:18.044Z,98508.81
2022-11-05T14:34:56.208Z,98513.22
2022-11-05T14:37:25.470Z,98514.88
2022-11-05T14:39:55.069Z,98517.91
2022-11-05T14:42:30.627Z,98519.47
2022-11-05T14:45:23.287Z,98513.63
2022-11-05T14:48:05.505Z,98513.78
2022-11-05T14:50:51.147Z,98522.44
2022-11-05T14:53:36.796Z,98528.38
2022-11-05T14:56:12.399Z,98521.25
2022-11-05T14:58:44.299Z,98533.06
2022-11-05T15:01:14.266Z,98532.66
2022-11-05T15:03:46.030Z,98525.91
2022-11-05T15:06:29.696Z,98537.16
2022-11-05T15:09:17.215Z,98525.56
2022-11-05T15:11:56.573Z,98531.91
2022-11-05T15:14:51.665Z,98536.09
2022-11-05T15:17:39.328Z,98524.69
2022-11-05T15:20:21.625Z,98528.41
2022-11-05T15:22:51.889Z,98532.00
2022-11-05T15:25:30.579Z,98547.50
2022-11-05T15:28:16.513Z,98540.31
2022-11-05T15:31:04.909Z,98530.91
2022-11-05T15:33:33.061Z,98542.63
2022-11-05T15:36:27.973Z,98538.78
2022-11-05T15:39:27.444Z,98549.31
2022-11-05T15:41:43.499Z,98554.56
2022-11-05T15:44:31.757Z,98545.38
2022-11-05T15:47:36.795Z,98547.75
2022-11-05T15:50:15.589Z,98539.44
2022-11-05T15:52:51.666Z,98536.06
2022-11-05T15:55:24.780Z,98543.97
2022-11-05T15:58:01.329Z,98547.50
2022-11-05T16:00:33.437Z,98545.22
2022-11-05T16:03:07.843Z,98548.47
2022-11-05T16:05:42.299Z,98553.75
2022-11-05T16:08:19.916Z,98550.38
2022-11-05T16:10:50.247Z,98552.28
2022-11-05T16:13:34.518Z,98550.69
2022-11-05T16:16:14.285Z,98558.53
2022-11-05T16:18:42.924Z,98551.94
2022-11-05T16:21:19.287Z,98559.25
2022-11-05T16:23:49.262Z,98554.75
2022-11-05T16:27:00.512Z,98567.53
2022-11-05T16:29:22.187Z,98577.47
2022-11-05T16:31:50.957Z,98574.50
2022-11-05T16:34:35.813Z,98569.72
2022-11-05T16:37:08.209Z,98580.50
2022-11-05T16:39:35.210Z,98572.81
2022-11-05T16:42:02.271Z,98568.19
2022-11-05T16:44:29.478Z,98574.25
2022-11-05T16:46:56.494Z,98586.09
2022-11-05T16:49:23.579Z,98596.34
2022-11-05T16:51:50.539Z,98589.56
2022-11-05T16:54:17.781Z,98592.53
2022-11-05T16:56:47.362Z,98597.25
2022-11-05T16:59:14.356Z,98602.25
2022-11-05T17:01:43.045Z,98602.16
2022-11-05T17:04:13.075Z,98600.53
2022-11-05T17:06:40.235Z,98600.63
2022-11-05T17:09:07.261Z,98608.66
2022-11-05T17:11:34.324Z,98609.38
2022-11-05T17:14:01.339Z,98605.13
2022-11-05T17:16:28.387Z,98594.28
2022-11-05T17:18:55.420Z,98598.38
2022-11-05T17:21:22.432Z,98603.88
2022-11-05T17:23:49.510Z,98602.19
2022-11-05T17:26:16.470Z,98601.22
2022-11-05T17:28:43.593Z,98599.97
2022-11-05T17:31:17.289Z,98612.06
2022-11-05T17:33:44.466Z,98614.63
2022-11-05T17:36:14.897Z,98617.84
2022-11-05T17:38:42.173Z,98619.41
2022-11-05T17:41:19.122Z,98615.53
2022-11-05T17:43:47.387Z,98623.03
2022-11-05T17:46:19.257Z,98621.56
2022-11-05T17:48:46.656Z,98622.69
2022-11-05T17:51:16.829Z,98620.56
2022-11-05T17:53:44.862Z,98629.84
2022-11-05T17:56:17.030Z,98640.91
2022-11-05T17:58:49.415Z,98633.25
2022-11-05T18:01:33.281Z,98638.59
2022-11-05T18:04:07.134Z,98641.81
2022-11-05T18:06:37.168Z,98643.75
2022-11-05T18:09:06.696Z,98651.75
2022-11-05T18:11:35.726Z,98657.88
2022-11-05T18:14:03.884Z,98660.75
2022-11-05T18:16:31.055Z,98663.63
2022-11-05T18:18:58.094Z,98664.84
2022-11-05T18:21:25.137Z,98670.81
2022-11-05T18:23:52.307Z,98669.56
2022-11-05T18:26:19.824Z,98672.63
2022-11-05T18:28:47.168Z,98677.81
2022-11-05T18:31:18.640Z,98674.88
2022-11-05T18:33:46.167Z,98674.94
2022-11-05T18:36:22.893Z,98682.28
2022-11-05T18:38:50.479Z,98677.91
2022-11-05T18:41:18.827Z,98663.81
2022-11-05T18:43:46.219Z,98663.84
2022-11-05T18:46:35.807Z,98658.50
2022-11-05T18:49:01.584Z,98655.22
2022-11-05T18:51:28.813Z,98653.38
2022-11-05T18:53:56.307Z,98660.94
2022-11-05T18:56:23.631Z,98658.28
2022-11-05T18:59:14.757Z,98651.09
2022-11-05T19:01:40.474Z,98656.84
2022-11-05T19:04:07.973Z,98656.22
2022-11-05T19:06:35.706Z,98655.22
2022-11-05T19:09:03.175Z,98661.34
2022-11-05T19:11:30.305Z,98670.56
2022-11-05T19:13:57.703Z,98669.34
2022-11-05T19:16:27.931Z,98665.00
2022-11-05T19:18:58.567Z,98668.91
2022-11-05T19:21:27.093Z,98662.34
2022-11-05T19:23:56.712Z,98654.16
2022-11-05T19:26:28.556Z,98657.84
2022-11-05T19:28:59.467Z,98658.03
2022-11-05T19:31:26.858Z,98657.72
2022-11-05T19:33:55.095Z,98649.75
2022-11-05T19:36:24.057Z,98659.81
2022-11-05T19:39:03.485Z,98656.38
2022-11-05T19:41:30.979Z,98661.19
2022-11-05T19:43:59.156Z,98663.91
2022-11-05T19:46:26.319Z,98656.72
2022-11-05T19:48:53.973Z,98663.28
2022-11-05T19:51:27.610Z,98666.03
2022-11-05T19:53:55.966Z,98661.81
2022-11-05T19:56:27.526Z,98664.78
2022-11-05T19:58:54.748Z,98653.59
2022-11-05T20:01:24.092Z,98647.09
2022-11-05T20:03:51.994Z,98655.47
2022-11-05T20:06:28.568Z,98655.06
2022-11-05T20:11:45.466Z,98661.31
2022-11-05T20:14:12.585Z,98655.59
2022-11-05T20:16:40.363Z,98660.97
2022-11-05T20:19:10.844Z,98669.63
2022-11-05T20:21:38.418Z,98685.13
2022-11-05T20:24:06.184Z,98689.69
2022-11-05T20:26:33.792Z,98685.34
2022-11-05T20:29:00.854Z,98694.13
2022-11-05T20:31:27.914Z,98693.91
2022-11-05T20:33:54.917Z,98693.03
2022-11-05T20:36:24.303Z,98689.47
2022-11-05T20:38:57.954Z,98695.44
2022-11-05T20:41:26.283Z,98694.00
2022-11-05T20:43:54.155Z,98688.00
2022-11-05T20:46:22.617Z,98687.19
2022-11-05T20:48:49.824Z,98687.50
2022-11-05T20:51:20.463Z,98675.03
2022-11-05T20:53:48.202Z,98689.47
2022-11-05T20:56:25.827Z,98693.81
2022-11-05T20:58:54.092Z,98696.03
2022-11-05T21:01:21.277Z,98697.25
2022-11-05T21:03:48.789Z,98692.22
2022-11-05T21:06:16.554Z,98687.94
2022-11-05T21:08:46.264Z,98691.63
2022-11-05T21:11:13.504Z,98690.81
2022-11-05T21:13:40.987Z,98692.91
2022-11-05T21:16:14.031Z,98684.31
2022-11-05T21:18:44.305Z,98686.66
2022-11-05T21:21:19.295Z,98682.91
2022-11-05T21:23:46.897Z,98680.41
2022-11-05T21:26:15.199Z,98684.72
2022-11-05T21:28:42.799Z,98679.97
2022-11-05T21:31:10.339Z,98683.38
2022-11-05T21:33:37.542Z,98674.94
2022-11-05T21:36:11.062Z,98678.09
2022-11-05T21:38:39.232Z,98681.16
2022-11-05T21:41:07.451Z,98678.69
2022-11-05T21:43:35.454Z,98679.00
2022-11-05T21:46:04.150Z,98679.09
2022-11-05T21:48:31.596Z,98674.13
2022-11-05T21:51:17.604Z,98684.28
2022-11-05T21:54:03.449Z,98673.81
2022-11-05T21:56:49.483Z,98671.81
2022-11-05T21:59:39.376Z,98670.81
2022-11-05T22:02:08.011Z,98670.34
2022-11-05T22:04:38.647Z,98675.88
2022-11-05T22:07:07.784Z,98677.16
2022-11-05T22:09:35.220Z,98677.63
2022-11-05T22:12:02.741Z,98676.59
2022-11-05T22:14:30.051Z,98680.59
2022-11-05T22:16:57.874Z,98669.97
2022-11-05T22:19:25.747Z,98676.66
2022-11-05T22:21:52.993Z,98675.19
2022-11-05T22:24:20.515Z,98679.25
2022-11-05T22:26:48.246Z,98677.63
2022-11-05T22:29:15.609Z,98672.06
2022-11-05T22:31:43.190Z,98677.91
2022-11-05T22:34:11.063Z,98676.75
2022-11-05T22:36:38.551Z,98669.38
2022-11-05T22:39:06.386Z,98663.75
2022-11-05T22:41:34.087Z,98669.88
2022-11-05T22:44:01.192Z,98674.44
2022-11-05T22:46:28.242Z,98664.59
2022-11-05T22:48:56.268Z,98666.97
2022-11-05T22:51:29.471Z,98668.34
2022-11-05T22:53:57.626Z,98665.53
2022-11-05T22:56:29.211Z,98657.50
2022-11-05T22:58:57.116Z,98666.06
2022-11-05T23:01:25.296Z,98651.38
2022-11-05T23:03:54.903Z,98667.09
2022-11-05T23:06:43.914Z,98660.91
2022-11-05T23:09:40.154Z,98646.13
2022-11-05T23:12:30.072Z,98651.13
2022-11-05T23:15:00.091Z,98655.19
2022-11-05T23:17:46.438Z,98659.19
2022-11-05T23:20:41.882Z,98648.19
2022-11-05T23:23:31.472Z,98648.16
2022-11-05T23:26:00.075Z,98650.53
2022-11-05T23:28:27.343Z,98644.78
2022-11-05T23:31:13.051Z,98650.84
2022-11-05T23:33:40.046Z,98645.88
2022-11-05T23:36:25.944Z,98645.44
2022-11-05T23:38:52.886Z,98642.13
2022-11-05T23:41:51.940Z,98651.31
2022-11-05T23:44:37.629Z,98660.88
2022-11-05T23:47:23.026Z,98654.91
2022-11-05T23:49:50.007Z,98642.78
2022-11-05T23:52:16.968Z,98641.19
2022-11-05T23:54:43.968Z,98640.63
2022-11-05T23:57:10.942Z,98630.19
2022-11-05T23:59:37.944Z,98636.47
